createdAt,value
2018-07-30T00:01:35.759Z,66.10
2018-07-30T00:04:05.356Z,66.30
2018-07-30T00:06:42.545Z,66.50
2018-07-30T00:09:18.336Z,66.20
2018-07-30T00:11:49.844Z,66.40
2018-07-30T00:14:26.015Z,66.00
2018-07-30T00:16:58.985Z,66.20
2018-07-30T00:19:29.783Z,66.20
2018-07-30T00:22:07.648Z,66.60
2018-07-30T00:24:37.381Z,67.20
2018-07-30T00:27:09.680Z,66.90
2018-07-30T00:29:41.008Z,67.30
2018-07-30T00:32:12.980Z,67.30
2018-07-30T00:34:47.923Z,67.40
2018-07-30T00:37:24.654Z,67.30
2018-07-30T00:39:57.659Z,67.40
2018-07-30T00:42:28.670Z,67.80
2018-07-30T00:44:58.442Z,68.40
2018-07-30T00:47:31.014Z,68.50
2018-07-30T00:50:01.364Z,68.10
2018-07-30T00:52:35.687Z,68.20
2018-07-30T00:55:14.044Z,68.60
2018-07-30T00:57:46.868Z,68.40
2018-07-30T01:00:17.668Z,68.70
2018-07-30T01:02:47.304Z,69.10
2018-07-30T01:05:19.885Z,69.30
2018-07-30T01:07:51.764Z,69.30
2018-07-30T01:10:23.259Z,69.50
2018-07-30T01:12:57.858Z,69.80
2018-07-30T01:15:28.926Z,70.00
2018-07-30T01:18:07.959Z,70.30
2018-07-30T01:20:38.742Z,70.10
2018-07-30T01:23:15.523Z,70.30
2018-07-30T01:25:48.215Z,70.20
2018-07-30T01:28:21.225Z,70.70
2018-07-30T01:30:53.124Z,70.60
2018-07-30T01:33:25.931Z,70.90
2018-07-30T01:36:01.543Z,70.90
2018-07-30T01:38:32.565Z,71.30
2018-07-30T01:41:07.772Z,71.50
2018-07-30T01:43:37.303Z,71.70
2018-07-30T01:46:09.224Z,71.60
2018-07-30T01:48:39.160Z,71.60
2018-07-30T01:51:11.127Z,71.40
2018-07-30T01:53:41.016Z,71.50
2018-07-30T01:56:12.232Z,71.70
2018-07-30T01:58:43.744Z,71.60
2018-07-30T02:01:15.728Z,72.00
2018-07-30T02:03:49.724Z,72.00
2018-07-30T02:06:20.233Z,72.00
2018-07-30T02:08:52.291Z,72.20
2018-07-30T02:11:25.479Z,72.10
2018-07-30T02:13:56.783Z,72.10
2018-07-30T02:16:32.663Z,72.00
2018-07-30T02:19:05.670Z,72.30
2018-07-30T02:21:39.120Z,72.30
2018-07-30T02:24:15.719Z,72.50
2018-07-30T02:26:53.626Z,72.80
2018-07-30T02:29:25.958Z,72.60
2018-07-30T02:32:02.205Z,72.70
2018-07-30T02:34:34.979Z,72.60
2018-07-30T02:37:07.646Z,73.00
2018-07-30T02:39:40.419Z,73.00
2018-07-30T02:42:13.969Z,73.00
2018-07-30T02:44:49.567Z,73.00
2018-07-30T02:47:24.712Z,73.00
2018-07-30T02:50:02.824Z,73.10
2018-07-30T02:52:33.184Z,73.50
2018-07-30T02:55:03.184Z,73.50
2018-07-30T02:57:34.882Z,74.10
2018-07-30T03:00:07.431Z,74.50
2018-07-30T03:02:39.236Z,74.50
2018-07-30T03:05:13.163Z,74.30
2018-07-30T03:07:45.232Z,74.10
2018-07-30T03:10:18.744Z,74.40
2018-07-30T03:12:50.707Z,74.40
2018-07-30T03:15:25.854Z,74.50
2018-07-30T03:17:59.545Z,74.40
2018-07-30T03:20:30.450Z,74.60
2018-07-30T03:23:02.441Z,74.70
2018-07-30T03:25:33.919Z,75.00
2018-07-30T03:28:05.990Z,74.80
2018-07-30T03:30:39.274Z,75.00
2018-07-30T03:33:10.621Z,75.20
2018-07-30T03:35:38.273Z,75.20
2018-07-30T03:38:05.974Z,75.20
2018-07-30T03:40:33.675Z,75.30
2018-07-30T03:43:01.343Z,75.20
2018-07-30T03:45:29.007Z,75.30
2018-07-30T03:47:56.667Z,75.40
2018-07-30T03:50:24.424Z,75.40
2018-07-30T03:52:52.165Z,75.70
2018-07-30T03:55:19.887Z,75.80
2018-07-30T03:57:47.576Z,76.10
2018-07-30T04:00:15.312Z,75.90
2018-07-30T04:02:43.447Z,76.00
2018-07-30T04:05:11.154Z,76.20
2018-07-30T04:07:38.835Z,76.30
2018-07-30T04:10:07.339Z,76.50
2018-07-30T04:12:35.011Z,76.50
2018-07-30T04:15:02.722Z,76.50
2018-07-30T04:17:30.356Z,76.80
2018-07-30T04:19:58.037Z,76.80
2018-07-30T04:22:25.716Z,76.80
2018-07-30T04:24:53.358Z,76.80
2018-07-30T04:27:21.028Z,76.90
2018-07-30T04:29:48.680Z,76.80
2018-07-30T04:32:16.329Z,77.30
2018-07-30T04:34:43.953Z,77.20
2018-07-30T04:37:11.618Z,77.30
2018-07-30T04:39:39.241Z,77.40
2018-07-30T04:42:06.935Z,77.20
2018-07-30T04:44:34.615Z,77.50
2018-07-30T04:47:02.291Z,77.50
2018-07-30T04:49:29.933Z,77.70
2018-07-30T04:51:57.595Z,77.80
2018-07-30T04:54:25.233Z,77.50
2018-07-30T04:56:52.883Z,77.70
2018-07-30T04:59:20.532Z,77.80
2018-07-30T05:01:48.231Z,77.60
2018-07-30T05:04:15.907Z,77.70
2018-07-30T05:06:43.557Z,77.80
2018-07-30T05:09:11.196Z,77.60
2018-07-30T05:11:38.870Z,77.70
2018-07-30T05:14:06.527Z,77.50
2018-07-30T05:16:34.211Z,77.50
2018-07-30T05:19:01.858Z,77.30
2018-07-30T05:21:29.511Z,77.40
2018-07-30T05:23:57.173Z,77.40
2018-07-30T05:26:24.880Z,77.50
2018-07-30T05:28:52.543Z,77.90
2018-07-30T05:31:20.175Z,77.50
2018-07-30T05:33:47.855Z,77.60
2018-07-30T05:36:15.538Z,78.10
2018-07-30T05:38:43.223Z,79.40
2018-07-30T05:41:10.868Z,78.50
2018-07-30T05:43:38.521Z,79.50
2018-07-30T05:46:06.195Z,79.80
2018-07-30T05:48:33.887Z,79.70
2018-07-30T05:51:01.528Z,79.00
2018-07-30T05:53:29.258Z,78.20
2018-07-30T05:55:56.899Z,77.50
2018-07-30T05:58:24.559Z,77.50
2018-07-30T06:00:52.223Z,77.40
2018-07-30T06:03:19.994Z,78.20
2018-07-30T06:05:47.657Z,77.80
2018-07-30T06:08:15.333Z,77.80
2018-07-30T06:10:43.032Z,77.10
2018-07-30T06:13:10.739Z,76.80
2018-07-30T06:15:38.355Z,76.40
2018-07-30T06:18:06.059Z,78.20
2018-07-30T06:20:33.743Z,77.20
2018-07-30T06:23:01.406Z,77.60
2018-07-30T06:25:29.078Z,78.00
2018-07-30T06:27:56.747Z,77.00
2018-07-30T06:30:24.434Z,78.10
2018-07-30T06:32:52.091Z,78.40
2018-07-30T06:35:19.764Z,77.90
2018-07-30T06:37:47.400Z,77.40
2018-07-30T06:40:15.091Z,77.80
2018-07-30T06:42:42.894Z,76.30
2018-07-30T06:45:10.568Z,77.50
2018-07-30T06:47:38.211Z,76.50
2018-07-30T06:50:05.891Z,75.80
2018-07-30T06:52:33.589Z,76.50
2018-07-30T06:55:01.234Z,77.20
2018-07-30T06:57:28.939Z,76.70
2018-07-30T06:59:56.590Z,76.90
2018-07-30T07:02:24.319Z,76.50
2018-07-30T07:04:55.886Z,75.70
2018-07-30T07:07:25.288Z,75.10
2018-07-30T07:09:55.367Z,74.40
2018-07-30T07:12:30.718Z,75.50
2018-07-30T07:15:05.908Z,74.10
2018-07-30T07:17:40.894Z,73.80
2018-07-30T07:20:14.591Z,74.30
2018-07-30T07:22:46.415Z,73.90
2018-07-30T07:25:17.980Z,73.00
2018-07-30T07:27:52.235Z,73.00
2018-07-30T07:30:31.615Z,73.70
2018-07-30T07:33:24.145Z,73.30
2018-07-30T07:36:10.393Z,70.20
2018-07-30T07:38:50.223Z,72.60
2018-07-30T07:41:53.350Z,70.70
2018-07-30T07:44:35.068Z,70.20
2018-07-30T07:50:56.945Z,68.90
2018-07-30T07:54:13.388Z,69.90
2018-07-30T07:56:55.302Z,70.40
2018-07-30T07:59:28.878Z,66.90
2018-07-30T08:01:59.357Z,65.60
2018-07-30T08:04:32.502Z,67.80
2018-07-30T08:07:02.203Z,69.70
2018-07-30T08:09:34.354Z,67.80
2018-07-30T08:15:16.784Z,69.00
2018-07-30T08:17:47.039Z,67.20
2018-07-30T08:20:21.372Z,67.80
2018-07-30T08:23:00.767Z,69.20
2018-07-30T08:28:29.463Z,65.70
2018-07-30T08:31:00.499Z,67.20
2018-07-30T08:33:34.836Z,64.00
2018-07-30T08:36:10.302Z,64.50
2018-07-30T08:38:44.322Z,62.10
2018-07-30T08:41:23.494Z,59.90
2018-07-30T08:43:57.836Z,58.90
2018-07-30T08:46:30.720Z,61.00
2018-07-30T08:49:01.285Z,60.80
2018-07-30T08:51:35.588Z,60.40
2018-07-30T08:54:13.357Z,62.30
2018-07-30T08:56:48.845Z,60.50
2018-07-30T08:59:20.098Z,61.20
2018-07-30T09:01:56.009Z,58.50
2018-07-30T09:04:28.652Z,57.40
2018-07-30T09:07:03.273Z,57.50
2018-07-30T09:09:42.343Z,56.20
2018-07-30T09:12:16.238Z,59.50
2018-07-30T09:14:52.008Z,59.00
2018-07-30T09:17:35.850Z,55.70
2018-07-30T09:20:12.876Z,56.60
2018-07-30T09:22:44.576Z,57.80
2018-07-30T09:25:42.794Z,54.50
2018-07-30T09:28:19.273Z,55.10
2018-07-30T09:30:51.417Z,56.40
2018-07-30T09:33:26.677Z,53.70
2018-07-30T09:36:01.831Z,56.20
2018-07-30T09:38:32.311Z,52.00
2018-07-30T09:41:04.849Z,49.80
2018-07-30T09:43:41.001Z,50.20
2018-07-30T09:46:16.263Z,52.50
2018-07-30T09:48:59.107Z,51.90
2018-07-30T10:30:59.677Z,52.80
2018-07-30T10:33:37.974Z,79.40
2018-07-30T10:36:09.676Z,83.70
2018-07-30T10:38:46.776Z,80.70
2018-07-30T10:41:16.299Z,80.60
2018-07-30T11:04:01.975Z,67.00
2018-07-30T11:06:35.948Z,67.20
2018-07-30T11:09:13.803Z,68.60
2018-07-30T11:11:45.390Z,66.30
2018-07-30T11:14:17.560Z,66.10
2018-07-30T11:16:58.775Z,65.70
2018-07-30T11:19:39.823Z,66.90
2018-07-30T11:25:01.229Z,65.60
2018-07-30T11:27:35.599Z,64.10
2018-07-30T11:30:08.756Z,66.30
2018-07-30T11:35:46.416Z,59.90
2018-07-30T11:38:27.415Z,62.80
2018-07-30T11:41:18.447Z,64.30
2018-07-30T11:44:08.445Z,62.90
2018-07-30T11:46:38.152Z,63.10
2018-07-30T11:57:27.917Z,63.60
2018-07-30T12:03:27.573Z,61.40
2018-07-30T12:09:00.923Z,42.90
2018-07-30T12:11:28.730Z,40.00
2018-07-30T12:13:56.488Z,42.80
2018-07-30T12:16:35.615Z,41.70
2018-07-30T12:21:56.893Z,39.10
2018-07-30T12:24:36.011Z,41.10
2018-07-30T12:27:10.232Z,42.60
2018-07-30T12:32:41.656Z,36.50
2018-07-30T12:35:21.082Z,39.30
2018-07-30T12:41:00.959Z,39.90
2018-07-30T12:43:30.891Z,35.90
2018-07-30T12:48:59.583Z,39.00
2018-07-30T12:52:18.178Z,36.30
2018-07-30T12:55:07.233Z,37.90
2018-07-30T12:57:53.260Z,36.80
2018-07-30T13:00:38.166Z,36.40
2018-07-30T13:03:27.656Z,36.60
2018-07-30T13:05:59.408Z,35.80
2018-07-30T13:08:27.152Z,34.30
2018-07-30T13:10:54.903Z,36.60
2018-07-30T13:13:22.570Z,37.50
2018-07-30T13:16:04.051Z,33.90
2018-07-30T13:18:32.723Z,35.30
2018-07-30T13:21:10.755Z,34.30
2018-07-30T13:23:39.061Z,35.10
2018-07-30T13:26:06.835Z,35.90
2018-07-30T13:28:53.033Z,34.70
2018-07-30T13:31:35.024Z,32.40
2018-07-30T13:34:19.360Z,34.80
2018-07-30T13:37:07.044Z,33.50
2018-07-30T13:39:35.220Z,34.00
2018-07-30T13:44:55.352Z,34.20
2018-07-30T13:47:40.688Z,36.70
2018-07-30T13:53:15.238Z,34.60
2018-07-30T13:55:54.988Z,35.10
2018-07-30T13:58:32.824Z,34.20
2018-07-30T14:01:14.085Z,36.30
2018-07-30T14:03:43.666Z,35.10
2018-07-30T14:06:29.925Z,33.10
2018-07-30T14:09:15.936Z,35.90
2018-07-30T14:11:57.377Z,33.60
2018-07-30T14:17:16.628Z,34.90
2018-07-30T14:22:50.941Z,34.30
2018-07-30T14:25:25.805Z,36.90
2018-07-30T14:28:03.144Z,37.00
2018-07-30T14:42:36.780Z,35.00
2018-07-30T14:45:34.357Z,35.30
2018-07-30T14:48:15.847Z,35.80
2018-07-30T14:50:43.613Z,33.30
2018-07-30T14:56:26.329Z,34.60
2018-07-30T14:59:15.585Z,32.60
2018-07-30T15:02:01.413Z,34.80
2018-07-30T15:04:47.811Z,34.80
2018-07-30T15:07:23.485Z,34.30
2018-07-30T15:10:05.641Z,34.70
2018-07-30T15:12:42.712Z,33.60
2018-07-30T15:15:12.724Z,32.20
2018-07-30T15:17:49.003Z,34.00
2018-07-30T15:35:34.087Z,32.90
2018-07-30T15:38:08.491Z,33.20
2018-07-30T15:40:44.308Z,32.40
2018-07-30T15:43:28.120Z,34.30
2018-07-30T15:46:00.887Z,33.70
2018-07-30T15:48:38.338Z,34.90
2018-07-30T15:51:20.910Z,36.00
2018-07-30T15:56:47.394Z,33.20
2018-07-30T15:59:25.385Z,32.00
2018-07-30T16:04:54.292Z,35.80
2018-07-30T16:07:42.755Z,34.40
2018-07-30T16:10:31.569Z,35.60
2018-07-30T16:13:30.581Z,34.90
2018-07-30T16:19:17.317Z,35.30
2018-07-30T16:22:03.381Z,35.40
2018-07-30T16:24:42.254Z,35.30
2018-07-30T16:27:28.713Z,34.80
2018-07-30T16:29:57.467Z,34.80
2018-07-30T16:32:30.794Z,37.60
2018-07-30T16:34:59.782Z,36.60
2018-07-30T16:37:27.610Z,34.20
2018-07-30T16:40:01.145Z,35.70
2018-07-30T16:48:32.763Z,36.20
2018-07-30T16:51:19.089Z,35.10
2018-07-30T16:59:36.360Z,36.00
2018-07-30T17:02:04.124Z,37.60
2018-07-30T17:04:31.899Z,36.30
2018-07-30T17:07:14.299Z,35.90
2018-07-30T17:09:42.116Z,36.00
2018-07-30T17:12:09.894Z,37.50
2018-07-30T17:14:38.703Z,36.90
2018-07-30T17:17:06.637Z,36.80
2018-07-30T17:19:42.011Z,38.90
2018-07-30T17:22:20.714Z,38.10
2018-07-30T17:27:37.323Z,37.70
2018-07-30T17:30:07.677Z,37.90
2018-07-30T17:32:35.433Z,37.20
2018-07-30T17:35:03.663Z,38.10
2018-07-30T17:37:32.766Z,38.10
2018-07-30T17:40:00.873Z,39.10
2018-07-30T17:42:29.090Z,37.00
2018-07-30T17:44:59.087Z,39.30
2018-07-30T17:47:27.646Z,37.50
2018-07-30T17:49:55.566Z,37.40
2018-07-30T17:54:52.377Z,37.10
2018-07-30T17:59:48.207Z,37.70
2018-07-30T18:02:16.365Z,38.00
2018-07-30T18:04:44.068Z,38.70
2018-07-30T18:07:11.851Z,39.30
2018-07-30T18:09:40.478Z,38.70
2018-07-30T18:12:08.177Z,38.90
2018-07-30T18:14:35.886Z,38.60
2018-07-30T18:17:03.725Z,38.10
2018-07-30T18:19:31.471Z,38.20
2018-07-30T18:21:59.273Z,38.00
2018-07-30T18:24:27.063Z,38.20
2018-07-30T18:26:54.827Z,38.40
2018-07-30T18:29:22.866Z,39.20
2018-07-30T18:31:50.771Z,38.20
2018-07-30T18:34:21.656Z,37.80
2018-07-30T18:36:49.964Z,38.50
2018-07-30T18:39:17.899Z,39.80
2018-07-30T18:41:46.451Z,39.60
2018-07-30T18:44:14.305Z,39.70
2018-07-30T18:46:43.102Z,40.00
2018-07-30T18:49:10.893Z,39.60
2018-07-30T18:51:38.665Z,40.00
2018-07-30T18:54:07.005Z,39.10
2018-07-30T18:56:34.873Z,40.70
2018-07-30T18:59:02.784Z,40.30
2018-07-30T19:01:30.716Z,40.20
2018-07-30T19:03:59.303Z,40.80
2018-07-30T19:06:27.564Z,40.80
2018-07-30T19:08:56.919Z,40.40
2018-07-30T19:11:24.980Z,40.50
2018-07-30T19:13:58.931Z,40.90
2018-07-30T19:16:27.083Z,40.40
2018-07-30T19:18:54.836Z,41.50
2018-07-30T19:21:23.784Z,41.40
2018-07-30T19:23:51.701Z,40.90
2018-07-30T19:26:20.093Z,41.50
2018-07-30T19:28:49.544Z,41.80
2018-07-30T19:31:18.649Z,42.20
2018-07-30T19:33:47.174Z,42.40
2018-07-30T19:36:15.820Z,42.50
2018-07-30T19:38:43.577Z,42.40
2018-07-30T19:41:11.707Z,42.90
2018-07-30T19:43:39.432Z,43.70
2018-07-30T19:46:07.572Z,43.80
2018-07-30T19:48:35.422Z,44.60
2018-07-30T19:51:03.417Z,45.40
2018-07-30T19:53:31.304Z,45.50
2018-07-30T19:55:59.156Z,45.60
2018-07-30T19:58:27.053Z,46.10
2018-07-30T20:00:55.267Z,46.10
2018-07-30T20:03:23.576Z,46.70
2018-07-30T20:05:51.759Z,46.40
2018-07-30T20:08:19.680Z,46.10
2018-07-30T20:10:47.726Z,46.70
2018-07-30T20:13:15.524Z,46.70
2018-07-30T20:15:43.549Z,46.60
2018-07-30T20:18:11.340Z,46.60
2018-07-30T20:20:39.315Z,46.90
2018-07-30T20:23:07.423Z,46.90
2018-07-30T20:25:35.285Z,46.40
2018-07-30T20:28:03.309Z,46.70
2018-07-30T20:30:31.395Z,46.90
2018-07-30T20:32:59.458Z,47.30
2018-07-30T20:35:27.249Z,46.40
2018-07-30T20:37:55.019Z,46.50
2018-07-30T20:40:22.800Z,47.10
2018-07-30T20:42:50.551Z,47.00
2018-07-30T20:45:18.280Z,47.70
2018-07-30T20:47:46.024Z,47.80
2018-07-30T20:50:13.733Z,48.00
2018-07-30T20:52:41.472Z,47.90
2018-07-30T20:55:09.240Z,48.50
2018-07-30T20:57:37.039Z,48.60
2018-07-30T21:00:04.996Z,48.70
2018-07-30T21:02:32.719Z,48.00
2018-07-30T21:05:00.584Z,47.90
2018-07-30T21:07:28.380Z,47.90
2018-07-30T21:09:56.172Z,47.70
2018-07-30T21:12:24.166Z,48.70
2018-07-30T21:14:51.963Z,48.70
2018-07-30T21:17:19.736Z,48.50
2018-07-30T21:19:47.474Z,49.10
2018-07-30T21:22:15.203Z,48.70
2018-07-30T21:24:42.976Z,48.40
2018-07-30T21:27:10.700Z,49.30
2018-07-30T21:29:38.469Z,49.70
2018-07-30T21:32:06.310Z,49.60
2018-07-30T21:34:34.032Z,49.50
2018-07-30T21:37:01.754Z,49.90
2018-07-30T21:39:29.530Z,50.10
2018-07-30T21:41:57.336Z,50.30
2018-07-30T21:44:25.040Z,50.80
2018-07-30T21:46:52.851Z,51.30
2018-07-30T21:49:20.560Z,51.10
2018-07-30T21:51:48.307Z,50.30
2018-07-30T21:54:16.015Z,50.40
2018-07-30T21:56:43.728Z,51.00
2018-07-30T21:59:11.484Z,51.50
2018-07-30T22:01:39.267Z,51.90
2018-07-30T22:04:07.103Z,51.00
2018-07-30T22:06:35.454Z,51.30
2018-07-30T22:09:04.833Z,51.00
2018-07-30T22:11:33.335Z,51.30
2018-07-30T22:14:01.181Z,51.60
2018-07-30T22:16:28.922Z,51.30
2018-07-30T22:18:57.451Z,51.60
2018-07-30T22:21:25.231Z,51.80
2018-07-30T22:23:53.060Z,51.90
2018-07-30T22:26:20.848Z,52.20
2018-07-30T22:28:48.546Z,52.40
2018-07-30T22:31:16.269Z,52.40
2018-07-30T22:33:44.000Z,52.30
2018-07-30T22:36:11.783Z,52.50
2018-07-30T22:38:39.725Z,52.50
2018-07-30T22:41:07.478Z,52.40
2018-07-30T22:43:35.180Z,52.00
2018-07-30T22:46:03.012Z,52.40
2018-07-30T22:48:33.028Z,52.60
2018-07-30T22:51:00.780Z,52.60
2018-07-30T22:53:28.504Z,52.90
2018-07-30T22:55:56.246Z,53.10
2018-07-30T22:58:24.378Z,52.90
2018-07-30T23:00:53.491Z,52.70
2018-07-30T23:03:21.352Z,53.20
2018-07-30T23:05:49.067Z,53.50
2018-07-30T23:08:16.812Z,53.50
2018-07-30T23:10:44.619Z,53.40
2018-07-30T23:13:12.442Z,53.70
2018-07-30T23:15:40.120Z,54.30
2018-07-30T23:18:08.621Z,54.30
2018-07-30T23:20:36.721Z,54.10
2018-07-30T23:23:04.482Z,54.60
2018-07-30T23:25:32.259Z,54.80
2018-07-30T23:27:59.999Z,55.10
2018-07-30T23:30:27.813Z,54.80
2018-07-30T23:32:55.575Z,55.00
2018-07-30T23:35:23.571Z,55.20
2018-07-30T23:37:51.263Z,55.20
2018-07-30T23:40:18.989Z,55.40
2018-07-30T23:42:47.397Z,55.80
2018-07-30T23:45:15.159Z,56.30
2018-07-30T23:47:42.892Z,55.70
2018-07-30T23:50:10.624Z,55.40
2018-07-30T23:52:38.355Z,55.20
2018-07-30T23:55:06.109Z,55.20
2018-07-30T23:57:33.873Z,55.50
